Flight Track Log - Related Links

Times and Time Zones

All times are in EST time to prevent confusion due to time zone crossing. See the AFL1855 flight status page for this flight to view local times or setup timezone preferences in your user account.


Time Position Orientation Groundspeed Altitude Reporting Facility
EST Latitude Longitude Course Direction KTS MPH feet Rate Location/Type
Tue 08:28:00 AM 47.9450 45.4609 333° Northwest  Level Estimated
Tue 08:29:00 AM 48.0641 45.3637 331° Northwest  Level Estimated
Tue 08:30:00 AM 48.1832 45.2661 331° Northwest  Level Estimated
Tue 08:31:00 AM 48.3021 45.1680 331° Northwest  Level Estimated
Tue 08:32:00 AM 48.4210 45.0695 331° Northwest  Level Estimated
Tue 08:33:00 AM 48.5398 44.9705 331° Northwest  Level Estimated
Tue 08:34:00 AM 48.6585 44.8710 331° Northwest  Level Estimated
Tue 08:35:00 AM 48.7772 44.7711 331° Northwest  Level Estimated
Tue 08:36:00 AM 48.8957 44.6707 331° Northwest  Level Estimated
Tue 08:37:00 AM 49.0142 44.5698 331° Northwest  Level Estimated
Tue 08:38:00 AM 49.1325 44.4684 331° Northwest  Level Estimated
Tue 08:39:00 AM 49.2508 44.3666 331° Northwest  Level Estimated
Tue 08:40:00 AM 49.3690 44.2642 331° Northwest  Level Estimated
Tue 08:41:00 AM 49.4871 44.1614 331° Northwest  Level Estimated
Tue 08:42:00 AM 49.6051 44.0581 330° Northwest  Level Estimated
Tue 08:43:00 AM 49.7230 43.9543 330° Northwest  Level Estimated
Tue 08:44:00 AM 49.8409 43.8499 330° Northwest  Level Estimated
Tue 08:45:00 AM 49.9586 43.7451 330° Northwest  Level Estimated
Tue 08:46:00 AM 50.0762 43.6397 330° Northwest  Level Estimated
Tue 08:47:00 AM 50.1937 43.5338 330° Northwest  Level Estimated
Tue 08:48:00 AM 50.3112 43.4274 330° Northwest  Level Estimated
Tue 08:49:00 AM 50.4285 43.3205 330° Northwest  Level Estimated
Tue 08:50:00 AM 50.5458 43.2130 330° Northwest  Level Estimated
Tue 08:51:00 AM 50.6629 43.1050 330° Northwest  Level Estimated
Tue 08:52:00 AM 50.7799 42.9965 330° Northwest  Level Estimated
Tue 08:53:00 AM 50.8969 42.8874 330° Northwest  Level Estimated
Tue 08:54:00 AM 51.0137 42.7778 329° Northwest  Level Estimated
Tue 08:55:00 AM 51.1305 42.6676 329° Northwest  Level Estimated
Tue 08:56:00 AM 51.2471 42.5569 329° Northwest  Level Estimated
Tue 08:57:00 AM 51.3636 42.4456 329° Northwest  Level Estimated
Tue 08:58:00 AM 51.4800 42.3337 329° Northwest  Level Estimated
Tue 08:59:00 AM 51.5964 42.2213 329° Northwest  Level Estimated
Tue 09:00:00 AM 51.7126 42.1082 329° Northwest  Level Estimated
Tue 09:01:00 AM 51.8287 41.9947 329° Northwest  Level Estimated
Tue 09:02:00 AM 51.9447 41.8805 329° Northwest  Level Estimated
Tue 09:03:00 AM 52.0606 41.7657 329° Northwest  Level Estimated
Tue 09:04:00 AM 52.1763 41.6503 329° Northwest  Level Estimated
Tue 09:05:00 AM 52.2920 41.5343 328° Northwest  Level Estimated
Tue 09:06:00 AM 52.4075 41.4177 328° Northwest  Level Estimated
Tue 09:07:00 AM 52.5229 41.3005 328° Northwest  Level Estimated
Tue 09:08:00 AM 52.6382 41.1827 328° Northwest  Level Estimated
Tue 09:09:00 AM 52.7534 41.0643 328° Northwest  Level Estimated
Tue 09:10:00 AM 52.8685 40.9452 328° Northwest  Level Estimated
Tue 09:11:00 AM 52.9834 40.8255 328° Northwest  Level Estimated
Tue 09:12:00 AM 53.0983 40.7052 328° Northwest  Level Estimated
Tue 09:13:00 AM 53.2130 40.5842 328° Northwest  Level Estimated
Tue 09:14:00 AM 53.3276 40.4626 328° Northwest  Level Estimated
Tue 09:15:00 AM 53.4420 40.3403 328° Northwest  Level Estimated
Tue 09:16:00 AM 53.5564 40.2174 327° Northwest  Level Estimated
Tue 09:17:00 AM 53.6706 40.0937 327° Northwest  Level Estimated
Tue 09:18:00 AM 53.7846 39.9695 327° Northwest  Level Estimated
Tue 09:19:00 AM 53.8986 39.8445 327° Northwest  Level Estimated
Tue 09:20:00 AM 54.0124 39.7189 327° Northwest  Level Estimated
Tue 09:21:00 AM 54.1261 39.5925 327° Northwest  Level Estimated
Tue 09:22:00 AM 54.2397 39.4655 327° Northwest  Level Estimated
Tue 09:23:00 AM 54.3531 39.3378 327° Northwest  Level Estimated
Tue 09:24:00 AM 54.4664 39.2094 327° Northwest  Level Estimated
Tue 09:25:00 AM 54.5795 39.0802 327° Northwest  Level Estimated
Tue 09:26:00 AM 54.6925 38.9503 326° Northwest  Level Estimated
Tue 09:27:00 AM 54.8054 38.8198 326° Northwest  Level Estimated
Tue 09:28:00 AM 54.9181 38.6884 326° Northwest  Level Estimated
Tue 09:29:00 AM 55.0307 38.5564 326° Northwest  Level Estimated
Tue 09:30:00 AM 55.1432 38.4236 326° Northwest  Level Estimated
Tue 09:31:00 AM 55.2555 38.2900 326° Northwest  Level Estimated
Tue 09:32:00 AM 55.3676 38.1557 326° Northwest  Level Estimated
Tue 09:33:00 AM 55.4796 38.0206 326° Northwest  Level Estimated
Tue 09:34:00 AM 55.5915 37.8848 326° Northwest  Level Estimated
Tue 09:35:00 AM 55.7032 37.7482 325° Northwest  Level Estimated
Tue 09:36:00 AM 55.8147 37.6108 325° Northwest  Level Estimated
Tue 09:37:00 AM 55.9261 37.4726 325° Northwest  Level Estimated
Tue 09:38:00 AM 55.9726 37.4146 325° Northwest  Level Estimated
Tue 09:39:00 AM 55.9726 37.4146 344° North  Level Estimated
Tue 09:40:00 AM 55.9726 37.4146 344° North  Level Estimated
Tue 09:41:00 AM 55.9726 37.4146 344° North  Level Estimated
Tue 09:42:00 AM 55.9726 37.4146 344° North  Level Estimated
Tue 09:43:00 AM 55.9726 37.4146 344° North  Level Estimated
Tue 09:44:00 AM 55.9726 37.4146 344° North  Level Estimated
Tue 09:45:00 AM 55.9726 37.4146 344° North  Level Estimated
Tue 09:46:00 AM 55.9726 37.4146 344° North  Level Estimated
Tue 09:47:00 AM 55.9726 37.4146 344° North  Level Estimated
Tue 09:48:00 AM 55.9726 37.4146 344° North  Level Estimated
Tue 09:49:00 AM 55.9726 37.4146 344° North  Level Estimated
Tue 09:50:00 AM 55.9726 37.4146 344° North  Level Estimated
Tue 09:51:00 AM 55.9726 37.4146 344° North  Level Estimated
Tue 09:52:00 AM 55.9726 37.4146 344° North  Level Estimated
Tue 09:53:00 AM 55.9726 37.4146 344° North  Level Estimated
Tue 09:54:00 AM 55.9726 37.4146 344° North  Level Estimated
Tue 09:55:00 AM 55.9726 37.4146 344° North  Level Estimated
Tue 09:56:00 AM 55.9726 37.4146 344° North  Level Estimated
Tue 09:57:00 AM 55.9726 37.4146 344° North  Level Estimated
Tue 09:58:00 AM 55.9726 37.4146 344° North  Level Estimated
Tue 09:59:00 AM 55.9726 37.4146 344° North  Level Estimated
Tue 10:00:00 AM 55.9726 37.4146 344° North  Level Estimated
Tue 10:01:00 AM 55.9726 37.4146 344° North  Level Estimated
Tue 10:02:00 AM 55.9726 37.4146 344° North  Level Estimated
Tue 10:03:00 AM 55.9726 37.4146 344° North  Level Estimated
Tue 10:04:00 AM 55.9726 37.4146 344° North  Level Estimated
Tue 10:05:00 AM 55.9726 37.4146 344° North  Level Estimated
Tue 10:06:00 AM 55.9726 37.4146 344° North  Level Estimated
Tue 10:07:00 AM 55.9726 37.4146 344° North  Level Estimated
Tue 10:08:00 AM 55.9726 37.4146 344° North  Level Estimated
Tue 10:09:00 AM 55.9726 37.4146 344° North  Level Estimated
Tue 10:10:00 AM 55.9726 37.4146 344° North  Level Estimated
Tue 10:11:00 AM 55.9726 37.4146 344° North  Level Estimated
Tue 10:12:00 AM 55.9726 37.4146 344° North  Level Estimated
Tue 10:13:00 AM 55.9726 37.4146 344° North  Level Estimated
Tue 10:14:00 AM 55.9726 37.4146 344° North  Level Estimated
Tue 10:15:00 AM 55.9726 37.4146 344° North  Level Estimated
Tue 10:16:00 AM 55.9726 37.4146 344° North  Level Estimated
Tue 10:17:00 AM 55.9726 37.4146 344° North  Level Estimated
Tue 10:18:00 AM 55.9726 37.4146 344° North  Level Estimated

Login

Don't have an account? Register now (free) for customized features, flight alerts, and more!